sensor_id;sensor_type;location;lat;lon;timestamp;temperature;humidity
44894;DHT22;30625;52.206;21.030;2022-12-11T00:01:15;0.70;99.90
44894;DHT22;30625;52.206;21.030;2022-12-11T00:03:42;0.60;99.90
44894;DHT22;30625;52.206;21.030;2022-12-11T00:06:10;0.60;99.90
44894;DHT22;30625;52.206;21.030;2022-12-11T00:08:37;0.60;99.90
44894;DHT22;30625;52.206;21.030;2022-12-11T00:11:02;0.60;99.90
44894;DHT22;30625;52.206;21.030;2022-12-11T00:13:28;0.60;99.90
44894;DHT22;30625;52.206;21.030;2022-12-11T00:15:54;0.70;99.90
44894;DHT22;30625;52.206;21.030;2022-12-11T00:18:19;0.70;99.90
44894;DHT22;30625;52.206;21.030;2022-12-11T00:20:45;0.60;99.90
44894;DHT22;30625;52.206;21.030;2022-12-11T00:23:11;0.60;99.90
44894;DHT22;30625;52.206;21.030;2022-12-11T00:25:41;0.60;99.90
44894;DHT22;30625;52.206;21.030;2022-12-11T00:28:08;0.60;99.90
44894;DHT22;30625;52.206;21.030;2022-12-11T00:30:38;0.50;99.90
44894;DHT22;30625;52.206;21.030;2022-12-11T00:33:04;0.50;99.90
44894;DHT22;30625;52.206;21.030;2022-12-11T00:35:29;0.50;99.90
44894;DHT22;30625;52.206;21.030;2022-12-11T00:37:55;0.60;99.90
44894;DHT22;30625;52.206;21.030;2022-12-11T00:40:20;0.60;99.90
44894;DHT22;30625;52.206;21.030;2022-12-11T00:42:46;0.60;99.90
44894;DHT22;30625;52.206;21.030;2022-12-11T00:45:12;0.50;99.90
44894;DHT22;30625;52.206;21.030;2022-12-11T00:47:37;0.50;99.90
44894;DHT22;30625;52.206;21.030;2022-12-11T00:50:04;0.40;99.90
44894;DHT22;30625;52.206;21.030;2022-12-11T00:52:29;0.40;99.90
44894;DHT22;30625;52.206;21.030;2022-12-11T00:54:55;0.40;99.90
44894;DHT22;30625;52.206;21.030;2022-12-11T00:57:21;0.40;99.90
44894;DHT22;30625;52.206;21.030;2022-12-11T00:59:46;0.30;99.90
44894;DHT22;30625;52.206;21.030;2022-12-11T01:02:12;0.40;99.90
44894;DHT22;30625;52.206;21.030;2022-12-11T01:04:38;0.40;99.90
44894;DHT22;30625;52.206;21.030;2022-12-11T01:07:03;0.40;99.90
44894;DHT22;30625;52.206;21.030;2022-12-11T01:09:29;0.40;99.90
44894;DHT22;30625;52.206;21.030;2022-12-11T01:12:13;0.30;99.90
44894;DHT22;30625;52.206;21.030;2022-12-11T01:14:39;0.20;99.90
44894;DHT22;30625;52.206;21.030;2022-12-11T01:17:05;0.60;99.90
44894;DHT22;30625;52.206;21.030;2022-12-11T01:19:30;0.30;99.90
44894;DHT22;30625;52.206;21.030;2022-12-11T01:21:56;0.30;99.90
44894;DHT22;30625;52.206;21.030;2022-12-11T01:24:22;0.30;99.90
44894;DHT22;30625;52.206;21.030;2022-12-11T01:26:47;0.40;99.90
44894;DHT22;30625;52.206;21.030;2022-12-11T01:29:13;0.40;99.90
44894;DHT22;30625;52.206;21.030;2022-12-11T01:31:39;0.30;99.90
44894;DHT22;30625;52.206;21.030;2022-12-11T01:34:04;0.30;99.90
44894;DHT22;30625;52.206;21.030;2022-12-11T01:36:30;0.30;99.90
44894;DHT22;30625;52.206;21.030;2022-12-11T01:38:56;0.30;99.90
44894;DHT22;30625;52.206;21.030;2022-12-11T01:41:22;0.30;99.90
44894;DHT22;30625;52.206;21.030;2022-12-11T01:45:14;0.30;99.90
44894;DHT22;30625;52.206;21.030;2022-12-11T01:46:53;0.20;99.90
44894;DHT22;30625;52.206;21.030;2022-12-11T01:49:22;0.10;99.90
44894;DHT22;30625;52.206;21.030;2022-12-11T01:54:21;0.00;99.90
44894;DHT22;30625;52.206;21.030;2022-12-11T01:56:50;0.10;99.90
44894;DHT22;30625;52.206;21.030;2022-12-11T01:59:20;0.00;99.90
44894;DHT22;30625;52.206;21.030;2022-12-11T02:02:09;0.00;99.90
44894;DHT22;30625;52.206;21.030;2022-12-11T02:04:37;0.00;99.90
44894;DHT22;30625;52.206;21.030;2022-12-11T02:07:04;0.00;99.90
44894;DHT22;30625;52.206;21.030;2022-12-11T02:09:33;0.00;99.90
44894;DHT22;30625;52.206;21.030;2022-12-11T02:12:05;0.00;99.90
44894;DHT22;30625;52.206;21.030;2022-12-11T02:23:02;0.00;99.90
44894;DHT22;30625;52.206;21.030;2022-12-11T02:31:18;-0.10;99.90
44894;DHT22;30625;52.206;21.030;2022-12-11T02:34:29;-0.10;99.90
44894;DHT22;30625;52.206;21.030;2022-12-11T02:36:40;-0.10;99.90
44894;DHT22;30625;52.206;21.030;2022-12-11T02:39:10;0.00;99.90
44894;DHT22;30625;52.206;21.030;2022-12-11T02:41:43;0.70;99.90
44894;DHT22;30625;52.206;21.030;2022-12-11T02:44:13;-0.10;99.90
44894;DHT22;30625;52.206;21.030;2022-12-11T02:46:40;-0.10;99.90
44894;DHT22;30625;52.206;21.030;2022-12-11T02:49:08;-0.10;99.90
44894;DHT22;30625;52.206;21.030;2022-12-11T02:51:39;-0.20;99.90
44894;DHT22;30625;52.206;21.030;2022-12-11T02:54:11;0.00;99.90
44894;DHT22;30625;52.206;21.030;2022-12-11T02:57:07;-0.20;99.90
44894;DHT22;30625;52.206;21.030;2022-12-11T02:59:42;-0.20;99.90
44894;DHT22;30625;52.206;21.030;2022-12-11T03:02:10;-0.30;99.90
44894;DHT22;30625;52.206;21.030;2022-12-11T03:04:37;-0.30;99.90
44894;DHT22;30625;52.206;21.030;2022-12-11T03:07:08;-0.20;99.90
44894;DHT22;30625;52.206;21.030;2022-12-11T03:09:40;-0.20;99.90
44894;DHT22;30625;52.206;21.030;2022-12-11T03:12:08;-0.20;99.90
44894;DHT22;30625;52.206;21.030;2022-12-11T03:14:36;-0.20;99.90
44894;DHT22;30625;52.206;21.030;2022-12-11T03:17:34;-0.20;99.90
44894;DHT22;30625;52.206;21.030;2022-12-11T03:20:24;-0.20;99.90
44894;DHT22;30625;52.206;21.030;2022-12-11T03:23:03;-0.20;99.90
44894;DHT22;30625;52.206;21.030;2022-12-11T03:31:30;-0.20;99.90
44894;DHT22;30625;52.206;21.030;2022-12-11T03:33:59;-0.20;99.90
44894;DHT22;30625;52.206;21.030;2022-12-11T03:36:32;-0.20;99.90
44894;DHT22;30625;52.206;21.030;2022-12-11T03:39:02;-0.30;99.90
44894;DHT22;30625;52.206;21.030;2022-12-11T03:41:31;-0.20;99.90
44894;DHT22;30625;52.206;21.030;2022-12-11T03:43:58;-0.20;99.90
44894;DHT22;30625;52.206;21.030;2022-12-11T03:46:30;-0.20;99.90
44894;DHT22;30625;52.206;21.030;2022-12-11T03:49:04;-0.20;99.90
44894;DHT22;30625;52.206;21.030;2022-12-11T03:51:31;-0.20;99.90
44894;DHT22;30625;52.206;21.030;2022-12-11T03:53:58;0.00;99.90
44894;DHT22;30625;52.206;21.030;2022-12-11T03:56:24;-0.20;99.90
44894;DHT22;30625;52.206;21.030;2022-12-11T03:58:51;-0.20;99.90
44894;DHT22;30625;52.206;21.030;2022-12-11T04:01:17;-0.10;99.90
44894;DHT22;30625;52.206;21.030;2022-12-11T04:03:42;-0.30;99.90
44894;DHT22;30625;52.206;21.030;2022-12-11T04:06:08;-0.30;99.90
44894;DHT22;30625;52.206;21.030;2022-12-11T04:08:34;0.20;99.90
44894;DHT22;30625;52.206;21.030;2022-12-11T04:11:03;-0.40;99.90
44894;DHT22;30625;52.206;21.030;2022-12-11T04:13:47;-0.40;99.90
44894;DHT22;30625;52.206;21.030;2022-12-11T04:16:33;-0.40;99.90
44894;DHT22;30625;52.206;21.030;2022-12-11T04:18:59;-0.20;99.90
44894;DHT22;30625;52.206;21.030;2022-12-11T04:21:43;-0.30;99.90
44894;DHT22;30625;52.206;21.030;2022-12-11T04:24:27;-0.30;99.90
44894;DHT22;30625;52.206;21.030;2022-12-11T04:26:53;-0.30;99.90
44894;DHT22;30625;52.206;21.030;2022-12-11T04:29:19;-0.30;99.90
44894;DHT22;30625;52.206;21.030;2022-12-11T04:31:44;-0.30;99.90
44894;DHT22;30625;52.206;21.030;2022-12-11T04:34:10;0.40;99.90
44894;DHT22;30625;52.206;21.030;2022-12-11T04:36:36;-0.30;99.90
44894;DHT22;30625;52.206;21.030;2022-12-11T04:39:04;-0.30;99.90
44894;DHT22;30625;52.206;21.030;2022-12-11T04:41:29;-0.30;99.90
44894;DHT22;30625;52.206;21.030;2022-12-11T04:43:55;0.20;99.90
44894;DHT22;30625;52.206;21.030;2022-12-11T04:46:22;-0.30;99.90
44894;DHT22;30625;52.206;21.030;2022-12-11T04:48:49;-0.40;99.90
44894;DHT22;30625;52.206;21.030;2022-12-11T04:51:14;-0.20;99.90
44894;DHT22;30625;52.206;21.030;2022-12-11T04:53:40;-1.10;99.90
44894;DHT22;30625;52.206;21.030;2022-12-11T04:56:09;-0.40;99.90
44894;DHT22;30625;52.206;21.030;2022-12-11T04:58:35;-0.40;99.90
44894;DHT22;30625;52.206;21.030;2022-12-11T05:01:12;-0.40;99.90
44894;DHT22;30625;52.206;21.030;2022-12-11T05:03:39;-0.40;99.90
44894;DHT22;30625;52.206;21.030;2022-12-11T05:06:05;-0.50;99.90
44894;DHT22;30625;52.206;21.030;2022-12-11T05:08:33;-0.50;99.90
44894;DHT22;30625;52.206;21.030;2022-12-11T05:11:02;-0.50;99.90
44894;DHT22;30625;52.206;21.030;2022-12-11T05:13:29;-0.40;99.90
44894;DHT22;30625;52.206;21.030;2022-12-11T05:15:55;-0.40;99.90
44894;DHT22;30625;52.206;21.030;2022-12-11T05:18:21;-0.40;99.90
44894;DHT22;30625;52.206;21.030;2022-12-11T05:20:57;-0.40;99.90
44894;DHT22;30625;52.206;21.030;2022-12-11T05:23:23;-0.40;99.90
44894;DHT22;30625;52.206;21.030;2022-12-11T05:26:02;-0.40;99.90
44894;DHT22;30625;52.206;21.030;2022-12-11T05:28:31;-0.50;99.90
44894;DHT22;30625;52.206;21.030;2022-12-11T05:31:02;-0.50;99.90
44894;DHT22;30625;52.206;21.030;2022-12-11T05:33:28;-0.60;99.90
44894;DHT22;30625;52.206;21.030;2022-12-11T05:35:54;-0.60;99.90
44894;DHT22;30625;52.206;21.030;2022-12-11T05:38:21;-0.40;99.90
44894;DHT22;30625;52.206;21.030;2022-12-11T05:40:59;-0.70;99.90
44894;DHT22;30625;52.206;21.030;2022-12-11T05:43:27;-1.10;99.90
44894;DHT22;30625;52.206;21.030;2022-12-11T05:45:55;-0.60;99.90
44894;DHT22;30625;52.206;21.030;2022-12-11T05:48:21;-0.80;99.90
44894;DHT22;30625;52.206;21.030;2022-12-11T05:50:57;-0.70;99.90
44894;DHT22;30625;52.206;21.030;2022-12-11T05:53:23;-0.90;99.90
44894;DHT22;30625;52.206;21.030;2022-12-11T05:55:48;-0.80;99.90
44894;DHT22;30625;52.206;21.030;2022-12-11T05:58:14;-0.40;99.90
44894;DHT22;30625;52.206;21.030;2022-12-11T06:00:43;-0.70;99.90
44894;DHT22;30625;52.206;21.030;2022-12-11T06:03:09;-0.80;99.90
44894;DHT22;30625;52.206;21.030;2022-12-11T06:05:41;-0.80;99.90
44894;DHT22;30625;52.206;21.030;2022-12-11T06:08:07;-0.90;99.90
44894;DHT22;30625;52.206;21.030;2022-12-11T06:10:33;-0.80;99.90
44894;DHT22;30625;52.206;21.030;2022-12-11T06:12:59;-0.90;99.90
44894;DHT22;30625;52.206;21.030;2022-12-11T06:15:25;-0.80;99.90
44894;DHT22;30625;52.206;21.030;2022-12-11T06:17:51;-0.90;99.90
44894;DHT22;30625;52.206;21.030;2022-12-11T06:20:16;-0.90;99.90
44894;DHT22;30625;52.206;21.030;2022-12-11T06:22:42;-0.90;99.90
44894;DHT22;30625;52.206;21.030;2022-12-11T06:25:08;-0.50;99.90
44894;DHT22;30625;52.206;21.030;2022-12-11T06:27:34;-0.70;99.90
44894;DHT22;30625;52.206;21.030;2022-12-11T06:30:00;-0.80;99.90
44894;DHT22;30625;52.206;21.030;2022-12-11T06:32:26;-0.80;99.90
44894;DHT22;30625;52.206;21.030;2022-12-11T06:34:52;-0.80;99.90
44894;DHT22;30625;52.206;21.030;2022-12-11T06:37:17;-0.60;99.90
44894;DHT22;30625;52.206;21.030;2022-12-11T06:39:43;-0.80;99.90
44894;DHT22;30625;52.206;21.030;2022-12-11T06:42:09;-0.80;99.90
44894;DHT22;30625;52.206;21.030;2022-12-11T06:44:34;-0.90;99.90
44894;DHT22;30625;52.206;21.030;2022-12-11T06:47:00;-0.90;99.90
44894;DHT22;30625;52.206;21.030;2022-12-11T06:49:26;-0.70;99.90
44894;DHT22;30625;52.206;21.030;2022-12-11T06:51:52;-0.80;99.90
44894;DHT22;30625;52.206;21.030;2022-12-11T06:54:17;-0.90;99.90
44894;DHT22;30625;52.206;21.030;2022-12-11T06:56:43;-0.70;99.90
44894;DHT22;30625;52.206;21.030;2022-12-11T06:59:12;-1.00;99.90
44894;DHT22;30625;52.206;21.030;2022-12-11T07:01:38;-1.00;99.90
44894;DHT22;30625;52.206;21.030;2022-12-11T07:04:05;-1.00;99.90
44894;DHT22;30625;52.206;21.030;2022-12-11T07:06:30;-0.90;99.90
44894;DHT22;30625;52.206;21.030;2022-12-11T07:08:56;-0.80;99.90
44894;DHT22;30625;52.206;21.030;2022-12-11T07:11:22;-0.80;99.90
44894;DHT22;30625;52.206;21.030;2022-12-11T07:13:48;-0.60;99.90
44894;DHT22;30625;52.206;21.030;2022-12-11T07:16:16;-0.90;99.90
44894;DHT22;30625;52.206;21.030;2022-12-11T07:18:46;-1.00;99.90
44894;DHT22;30625;52.206;21.030;2022-12-11T07:21:12;-1.00;99.90
44894;DHT22;30625;52.206;21.030;2022-12-11T07:23:39;0.40;99.90
44894;DHT22;30625;52.206;21.030;2022-12-11T07:26:07;-1.10;99.90
44894;DHT22;30625;52.206;21.030;2022-12-11T07:28:33;-1.20;99.90
44894;DHT22;30625;52.206;21.030;2022-12-11T07:31:06;-1.10;99.90
44894;DHT22;30625;52.206;21.030;2022-12-11T07:33:32;-1.10;99.90
44894;DHT22;30625;52.206;21.030;2022-12-11T07:36:06;-1.10;99.90
44894;DHT22;30625;52.206;21.030;2022-12-11T07:38:33;-1.10;99.90
44894;DHT22;30625;52.206;21.030;2022-12-11T07:41:03;-1.00;99.90
44894;DHT22;30625;52.206;21.030;2022-12-11T07:43:30;-1.10;99.90
44894;DHT22;30625;52.206;21.030;2022-12-11T07:46:00;-1.20;99.90
44894;DHT22;30625;52.206;21.030;2022-12-11T07:48:26;-1.20;99.90
44894;DHT22;30625;52.206;21.030;2022-12-11T07:50:52;-1.20;99.90
44894;DHT22;30625;52.206;21.030;2022-12-11T07:53:17;-1.30;99.90
44894;DHT22;30625;52.206;21.030;2022-12-11T07:55:43;-1.30;99.90
44894;DHT22;30625;52.206;21.030;2022-12-11T07:58:09;-1.20;99.90
44894;DHT22;30625;52.206;21.030;2022-12-11T08:00:34;-0.10;99.90
44894;DHT22;30625;52.206;21.030;2022-12-11T08:03:00;-1.10;99.90
44894;DHT22;30625;52.206;21.030;2022-12-11T08:05:26;-1.10;99.90
44894;DHT22;30625;52.206;21.030;2022-12-11T08:07:51;-1.20;99.90
44894;DHT22;30625;52.206;21.030;2022-12-11T08:10:17;-1.20;99.90
44894;DHT22;30625;52.206;21.030;2022-12-11T08:12:43;-1.30;99.90
44894;DHT22;30625;52.206;21.030;2022-12-11T08:15:09;-1.30;99.90
44894;DHT22;30625;52.206;21.030;2022-12-11T08:17:35;-1.30;99.90
44894;DHT22;30625;52.206;21.030;2022-12-11T08:20:00;-1.30;99.90
44894;DHT22;30625;52.206;21.030;2022-12-11T08:22:26;-1.30;99.90
44894;DHT22;30625;52.206;21.030;2022-12-11T08:24:52;-1.30;99.90
44894;DHT22;30625;52.206;21.030;2022-12-11T08:27:17;-1.30;99.90
44894;DHT22;30625;52.206;21.030;2022-12-11T08:29:43;-2.30;99.90
44894;DHT22;30625;52.206;21.030;2022-12-11T08:32:10;-1.30;99.90
44894;DHT22;30625;52.206;21.030;2022-12-11T08:34:38;-1.30;99.90
44894;DHT22;30625;52.206;21.030;2022-12-11T08:37:04;-1.30;99.90
44894;DHT22;30625;52.206;21.030;2022-12-11T08:39:30;-1.30;99.90
44894;DHT22;30625;52.206;21.030;2022-12-11T08:41:55;-1.20;99.90
44894;DHT22;30625;52.206;21.030;2022-12-11T08:44:21;-1.20;99.90
44894;DHT22;30625;52.206;21.030;2022-12-11T08:51:55;-1.40;99.90
44894;DHT22;30625;52.206;21.030;2022-12-11T08:54:21;0.50;99.90
44894;DHT22;30625;52.206;21.030;2022-12-11T08:56:46;-1.40;99.90
44894;DHT22;30625;52.206;21.030;2022-12-11T08:59:12;-1.40;99.90
44894;DHT22;30625;52.206;21.030;2022-12-11T09:01:38;-1.50;99.90
44894;DHT22;30625;52.206;21.030;2022-12-11T09:04:04;-1.40;99.90
44894;DHT22;30625;52.206;21.030;2022-12-11T09:06:31;-1.40;99.90
44894;DHT22;30625;52.206;21.030;2022-12-11T09:08:59;-1.40;99.90
44894;DHT22;30625;52.206;21.030;2022-12-11T09:11:28;-1.40;99.90
44894;DHT22;30625;52.206;21.030;2022-12-11T09:13:54;-1.30;99.90
44894;DHT22;30625;52.206;21.030;2022-12-11T09:16:21;-1.30;99.90
44894;DHT22;30625;52.206;21.030;2022-12-11T09:18:49;-1.30;99.90
44894;DHT22;30625;52.206;21.030;2022-12-11T09:21:18;-1.20;99.90
44894;DHT22;30625;52.206;21.030;2022-12-11T09:23:44;-1.20;99.90
44894;DHT22;30625;52.206;21.030;2022-12-11T09:26:13;-1.10;99.90
44894;DHT22;30625;52.206;21.030;2022-12-11T09:28:40;-1.20;99.90
44894;DHT22;30625;52.206;21.030;2022-12-11T09:31:14;-1.10;99.90
44894;DHT22;30625;52.206;21.030;2022-12-11T09:33:40;-1.10;99.90
44894;DHT22;30625;52.206;21.030;2022-12-11T09:36:06;-1.10;99.90
44894;DHT22;30625;52.206;21.030;2022-12-11T09:38:33;-1.20;99.90
44894;DHT22;30625;52.206;21.030;2022-12-11T09:41:00;-1.20;99.90
44894;DHT22;30625;52.206;21.030;2022-12-11T09:46:12;-1.30;99.90
44894;DHT22;30625;52.206;21.030;2022-12-11T09:48:41;-1.30;99.90
44894;DHT22;30625;52.206;21.030;2022-12-11T09:51:17;-1.30;99.90
44894;DHT22;30625;52.206;21.030;2022-12-11T09:53:44;-1.40;99.90
44894;DHT22;30625;52.206;21.030;2022-12-11T10:02:21;-1.30;99.90
44894;DHT22;30625;52.206;21.030;2022-12-11T10:15:55;-1.40;99.90
44894;DHT22;30625;52.206;21.030;2022-12-11T10:18:25;-1.40;99.90
44894;DHT22;30625;52.206;21.030;2022-12-11T10:20:53;-1.40;99.90
44894;DHT22;30625;52.206;21.030;2022-12-11T10:23:26;-1.30;99.90
44894;DHT22;30625;52.206;21.030;2022-12-11T10:26:01;-1.40;99.90
44894;DHT22;30625;52.206;21.030;2022-12-11T10:28:28;-1.30;99.90
44894;DHT22;30625;52.206;21.030;2022-12-11T10:33:36;-1.20;99.90
44894;DHT22;30625;52.206;21.030;2022-12-11T10:36:07;-1.20;99.90
44894;DHT22;30625;52.206;21.030;2022-12-11T10:38:38;-1.10;99.90
44894;DHT22;30625;52.206;21.030;2022-12-11T10:41:11;-1.10;99.90
44894;DHT22;30625;52.206;21.030;2022-12-11T10:43:46;-0.40;99.90
44894;DHT22;30625;52.206;21.030;2022-12-11T10:48:52;-1.30;99.90
44894;DHT22;30625;52.206;21.030;2022-12-11T10:51:23;-1.40;99.90
44894;DHT22;30625;52.206;21.030;2022-12-11T10:53:51;-1.30;99.90
44894;DHT22;30625;52.206;21.030;2022-12-11T10:56:27;-1.00;99.90
44894;DHT22;30625;52.206;21.030;2022-12-11T10:58:54;-1.20;99.90
44894;DHT22;30625;52.206;21.030;2022-12-11T11:01:22;-1.10;99.90
44894;DHT22;30625;52.206;21.030;2022-12-11T11:04:22;-1.20;99.90
44894;DHT22;30625;52.206;21.030;2022-12-11T11:07:45;-1.20;99.90
44894;DHT22;30625;52.206;21.030;2022-12-11T11:09:46;-1.30;99.90
44894;DHT22;30625;52.206;21.030;2022-12-11T11:12:26;-1.20;99.90
44894;DHT22;30625;52.206;21.030;2022-12-11T11:15:00;-1.00;99.90
44894;DHT22;30625;52.206;21.030;2022-12-11T11:17:27;-1.20;99.90
44894;DHT22;30625;52.206;21.030;2022-12-11T11:19:54;-1.30;99.90
44894;DHT22;30625;52.206;21.030;2022-12-11T11:22:20;-1.40;99.90
44894;DHT22;30625;52.206;21.030;2022-12-11T11:24:53;-1.30;99.90
44894;DHT22;30625;52.206;21.030;2022-12-11T11:27:43;-1.30;99.90
44894;DHT22;30625;52.206;21.030;2022-12-11T11:33:05;-1.40;99.90
44894;DHT22;30625;52.206;21.030;2022-12-11T11:35:31;-1.30;99.90
44894;DHT22;30625;52.206;21.030;2022-12-11T11:43:42;-1.40;99.90
44894;DHT22;30625;52.206;21.030;2022-12-11T11:52:00;-1.40;99.90
44894;DHT22;30625;52.206;21.030;2022-12-11T11:55:07;-1.50;99.90
44894;DHT22;30625;52.206;21.030;2022-12-11T12:00:26;-1.50;99.90
44894;DHT22;30625;52.206;21.030;2022-12-11T12:03:14;-1.40;99.90
44894;DHT22;30625;52.206;21.030;2022-12-11T12:06:03;-1.40;99.90
44894;DHT22;30625;52.206;21.030;2022-12-11T12:11:22;-1.40;99.90
44894;DHT22;30625;52.206;21.030;2022-12-11T12:17:04;-1.50;99.90
44894;DHT22;30625;52.206;21.030;2022-12-11T12:27:58;-1.50;99.90
44894;DHT22;30625;52.206;21.030;2022-12-11T12:30:30;-1.50;99.90
44894;DHT22;30625;52.206;21.030;2022-12-11T12:34:00;-1.40;99.90
44894;DHT22;30625;52.206;21.030;2022-12-11T12:36:19;-1.50;99.90
44894;DHT22;30625;52.206;21.030;2022-12-11T12:39:02;-1.40;99.90
44894;DHT22;30625;52.206;21.030;2022-12-11T12:41:44;-1.50;99.90
44894;DHT22;30625;52.206;21.030;2022-12-11T12:44:12;-1.50;99.90
44894;DHT22;30625;52.206;21.030;2022-12-11T12:46:45;-1.40;99.90
44894;DHT22;30625;52.206;21.030;2022-12-11T12:49:42;-1.30;99.90
44894;DHT22;30625;52.206;21.030;2022-12-11T12:52:36;-1.30;99.90
44894;DHT22;30625;52.206;21.030;2022-12-11T12:55:19;-1.20;99.90
44894;DHT22;30625;52.206;21.030;2022-12-11T12:58:05;-1.30;99.90
44894;DHT22;30625;52.206;21.030;2022-12-11T13:00:35;-1.40;99.90
44894;DHT22;30625;52.206;21.030;2022-12-11T13:05:41;-1.40;99.90
44894;DHT22;30625;52.206;21.030;2022-12-11T13:08:08;-1.50;99.90
44894;DHT22;30625;52.206;21.030;2022-12-11T13:10:37;-1.50;99.90
44894;DHT22;30625;52.206;21.030;2022-12-11T13:13:05;-1.60;99.90
44894;DHT22;30625;52.206;21.030;2022-12-11T13:15:50;-1.60;99.90
44894;DHT22;30625;52.206;21.030;2022-12-11T13:18:35;-1.50;99.90
44894;DHT22;30625;52.206;21.030;2022-12-11T13:21:03;-1.60;99.90
44894;DHT22;30625;52.206;21.030;2022-12-11T13:23:48;-1.50;99.90
44894;DHT22;30625;52.206;21.030;2022-12-11T13:26:32;-1.60;99.90
44894;DHT22;30625;52.206;21.030;2022-12-11T13:28:58;-1.60;99.90
44894;DHT22;30625;52.206;21.030;2022-12-11T13:31:32;-1.50;99.90
44894;DHT22;30625;52.206;21.030;2022-12-11T13:34:07;-1.50;99.90
44894;DHT22;30625;52.206;21.030;2022-12-11T13:36:39;-1.50;99.90
44894;DHT22;30625;52.206;21.030;2022-12-11T13:39:17;-1.60;99.90
44894;DHT22;30625;52.206;21.030;2022-12-11T13:41:46;-1.50;99.90
44894;DHT22;30625;52.206;21.030;2022-12-11T13:44:34;-1.60;99.90
44894;DHT22;30625;52.206;21.030;2022-12-11T13:47:05;-2.00;99.90
44894;DHT22;30625;52.206;21.030;2022-12-11T13:49:38;-1.70;99.90
44894;DHT22;30625;52.206;21.030;2022-12-11T13:52:05;-1.60;99.90
44894;DHT22;30625;52.206;21.030;2022-12-11T13:54:33;-1.70;99.90
44894;DHT22;30625;52.206;21.030;2022-12-11T13:59:33;-1.70;99.90
44894;DHT22;30625;52.206;21.030;2022-12-11T14:02:04;-1.70;99.90
44894;DHT22;30625;52.206;21.030;2022-12-11T14:04:41;-1.60;99.90
44894;DHT22;30625;52.206;21.030;2022-12-11T14:07:08;-1.70;99.90
44894;DHT22;30625;52.206;21.030;2022-12-11T14:09:38;-1.70;99.90
44894;DHT22;30625;52.206;21.030;2022-12-11T14:12:15;-1.70;99.90
44894;DHT22;30625;52.206;21.030;2022-12-11T14:14:52;-1.70;99.90
44894;DHT22;30625;52.206;21.030;2022-12-11T14:17:28;-1.50;99.90
44894;DHT22;30625;52.206;21.030;2022-12-11T14:19:57;-1.60;99.90
44894;DHT22;30625;52.206;21.030;2022-12-11T14:22:28;-1.80;99.90
44894;DHT22;30625;52.206;21.030;2022-12-11T14:25:00;-1.80;99.90
44894;DHT22;30625;52.206;21.030;2022-12-11T14:27:28;-1.00;99.90
44894;DHT22;30625;52.206;21.030;2022-12-11T14:29:54;-1.90;99.90
44894;DHT22;30625;52.206;21.030;2022-12-11T14:32:33;-1.90;99.90
44894;DHT22;30625;52.206;21.030;2022-12-11T14:35:03;-1.90;99.90
44894;DHT22;30625;52.206;21.030;2022-12-11T14:37:30;-3.10;99.90
44894;DHT22;30625;52.206;21.030;2022-12-11T14:40:15;-1.60;99.90
44894;DHT22;30625;52.206;21.030;2022-12-11T14:42:50;-1.80;99.90
44894;DHT22;30625;52.206;21.030;2022-12-11T14:45:21;-1.80;99.90
44894;DHT22;30625;52.206;21.030;2022-12-11T14:47:48;-1.80;99.90
44894;DHT22;30625;52.206;21.030;2022-12-11T14:50:16;-1.80;99.90
44894;DHT22;30625;52.206;21.030;2022-12-11T14:52:54;-1.70;99.90
44894;DHT22;30625;52.206;21.030;2022-12-11T14:55:24;-1.80;99.90
44894;DHT22;30625;52.206;21.030;2022-12-11T14:57:59;-1.90;99.90
44894;DHT22;30625;52.206;21.030;2022-12-11T15:00:28;-1.90;99.90
44894;DHT22;30625;52.206;21.030;2022-12-11T15:03:04;-1.90;99.90
44894;DHT22;30625;52.206;21.030;2022-12-11T15:05:32;-1.90;99.90
44894;DHT22;30625;52.206;21.030;2022-12-11T15:08:00;0.20;99.90
44894;DHT22;30625;52.206;21.030;2022-12-11T15:12:53;-3.50;99.90
44894;DHT22;30625;52.206;21.030;2022-12-11T15:15:19;-1.90;99.90
44894;DHT22;30625;52.206;21.030;2022-12-11T15:17:47;-1.90;99.90
44894;DHT22;30625;52.206;21.030;2022-12-11T15:20:28;-1.10;99.90
44894;DHT22;30625;52.206;21.030;2022-12-11T15:22:57;-1.80;99.90
44894;DHT22;30625;52.206;21.030;2022-12-11T15:25:27;-1.80;99.90
44894;DHT22;30625;52.206;21.030;2022-12-11T15:27:57;-1.90;99.90
44894;DHT22;30625;52.206;21.030;2022-12-11T15:35:33;-1.90;99.90
44894;DHT22;30625;52.206;21.030;2022-12-11T15:37:59;-2.60;99.90
44894;DHT22;30625;52.206;21.030;2022-12-11T15:40:26;-1.90;99.90
44894;DHT22;30625;52.206;21.030;2022-12-11T15:42:52;-1.80;99.90
44894;DHT22;30625;52.206;21.030;2022-12-11T15:45:24;-1.80;99.90
44894;DHT22;30625;52.206;21.030;2022-12-11T15:47:51;-1.80;99.90
44894;DHT22;30625;52.206;21.030;2022-12-11T15:50:17;-1.70;99.90
44894;DHT22;30625;52.206;21.030;2022-12-11T15:52:44;-1.80;99.90
44894;DHT22;30625;52.206;21.030;2022-12-11T15:55:11;-1.80;99.90
44894;DHT22;30625;52.206;21.030;2022-12-11T15:57:37;-1.80;99.90
44894;DHT22;30625;52.206;21.030;2022-12-11T16:00:05;-1.70;99.90
44894;DHT22;30625;52.206;21.030;2022-12-11T16:02:31;-1.70;99.90
44894;DHT22;30625;52.206;21.030;2022-12-11T16:04:57;-1.40;99.90
44894;DHT22;30625;52.206;21.030;2022-12-11T16:07:25;-1.60;99.90
44894;DHT22;30625;52.206;21.030;2022-12-11T16:09:51;-1.60;99.90
44894;DHT22;30625;52.206;21.030;2022-12-11T16:12:17;-1.60;99.90
44894;DHT22;30625;52.206;21.030;2022-12-11T16:14:44;-1.60;99.90
44894;DHT22;30625;52.206;21.030;2022-12-11T16:17:11;-1.60;99.90
44894;DHT22;30625;52.206;21.030;2022-12-11T16:19:38;-0.40;99.90
44894;DHT22;30625;52.206;21.030;2022-12-11T16:22:05;-1.00;99.90
44894;DHT22;30625;52.206;21.030;2022-12-11T16:24:32;-1.60;99.90
44894;DHT22;30625;52.206;21.030;2022-12-11T16:26:57;-1.60;99.90
44894;DHT22;30625;52.206;21.030;2022-12-11T16:29:23;-1.70;99.90
44894;DHT22;30625;52.206;21.030;2022-12-11T16:31:58;-1.70;99.90
44894;DHT22;30625;52.206;21.030;2022-12-11T16:34:25;-1.60;99.90
44894;DHT22;30625;52.206;21.030;2022-12-11T16:36:51;-2.80;99.90
44894;DHT22;30625;52.206;21.030;2022-12-11T16:39:17;-1.60;99.90
44894;DHT22;30625;52.206;21.030;2022-12-11T16:41:43;-1.60;99.90
44894;DHT22;30625;52.206;21.030;2022-12-11T16:44:09;-1.60;99.90
44894;DHT22;30625;52.206;21.030;2022-12-11T16:46:35;-1.60;99.90
44894;DHT22;30625;52.206;21.030;2022-12-11T16:49:00;-1.60;99.90
44894;DHT22;30625;52.206;21.030;2022-12-11T16:51:26;-1.50;99.90
44894;DHT22;30625;52.206;21.030;2022-12-11T16:53:52;-1.50;99.90
44894;DHT22;30625;52.206;21.030;2022-12-11T16:56:18;-1.60;99.90
44894;DHT22;30625;52.206;21.030;2022-12-11T16:58:44;-1.60;99.90
44894;DHT22;30625;52.206;21.030;2022-12-11T17:01:13;-1.70;99.90
44894;DHT22;30625;52.206;21.030;2022-12-11T17:03:40;-1.70;99.90
44894;DHT22;30625;52.206;21.030;2022-12-11T17:06:11;-1.60;99.90
44894;DHT22;30625;52.206;21.030;2022-12-11T17:08:37;-1.60;99.90
44894;DHT22;30625;52.206;21.030;2022-12-11T17:11:07;-1.60;99.90